createdAt,value
2023-02-15T00:00:16.375Z,6.76
2023-02-15T00:01:23.088Z,6.76
2023-02-15T00:02:25.215Z,6.76
2023-02-15T00:03:28.750Z,6.75
2023-02-15T00:04:46.978Z,6.75
2023-02-15T00:06:09.706Z,6.74
2023-02-15T00:07:21.416Z,6.73
2023-02-15T00:08:24.767Z,6.72
2023-02-15T00:09:26.319Z,6.72
2023-02-15T00:10:28.782Z,6.70
2023-02-15T00:11:44.493Z,6.69
2023-02-15T00:12:47.540Z,6.68
2023-02-15T00:13:59.389Z,6.67
2023-02-15T00:15:13.922Z,6.67
2023-02-15T00:16:16.100Z,6.65
2023-02-15T00:17:18.646Z,6.63
2023-02-15T00:18:21.420Z,6.63
2023-02-15T00:19:24.128Z,6.60
2023-02-15T00:20:25.689Z,6.60
2023-02-15T00:21:28.173Z,6.60
2023-02-15T00:22:30.641Z,6.59
2023-02-15T00:23:32.571Z,6.59
2023-02-15T00:24:35.467Z,6.57
2023-02-15T00:25:37.048Z,6.57
2023-02-15T00:26:41.638Z,6.56
2023-02-15T00:27:43.213Z,6.57
2023-02-15T00:28:45.682Z,6.56
2023-02-15T00:29:48.505Z,6.55
2023-02-15T00:30:54.946Z,6.54
2023-02-15T00:31:56.652Z,6.54
2023-02-15T00:32:59.311Z,6.53
2023-02-15T00:34:03.375Z,6.53
2023-02-15T00:35:08.514Z,6.51
2023-02-15T00:36:21.331Z,6.51
2023-02-15T00:37:24.168Z,6.49
2023-02-15T00:38:27.193Z,6.47
2023-02-15T00:39:29.991Z,6.47
2023-02-15T00:40:31.554Z,6.47
2023-02-15T00:41:34.762Z,6.46
2023-02-15T00:42:36.516Z,6.45
2023-02-15T00:43:39.534Z,6.45
2023-02-15T00:44:46.467Z,6.45
2023-02-15T00:45:49.323Z,6.43
2023-02-15T00:46:52.188Z,6.43
2023-02-15T00:47:54.807Z,6.42
2023-02-15T00:48:56.414Z,6.42
2023-02-15T00:49:58.957Z,6.41
2023-02-15T00:51:01.574Z,6.39
2023-02-15T00:52:04.293Z,6.40
2023-02-15T00:53:05.976Z,6.39
2023-02-15T00:54:11.483Z,6.40
2023-02-15T00:55:13.102Z,6.39
2023-02-15T00:56:15.936Z,6.37
2023-02-15T00:57:20.085Z,6.37
2023-02-15T00:58:23.000Z,6.35
2023-02-15T00:59:24.787Z,6.37
2023-02-15T01:00:27.310Z,6.36
2023-02-15T01:01:31.065Z,6.35
2023-02-15T01:02:34.895Z,6.34
2023-02-15T01:03:36.823Z,6.34
2023-02-15T01:04:42.524Z,6.33
2023-02-15T01:05:44.843Z,6.32
2023-02-15T01:06:47.478Z,6.31
2023-02-15T01:07:49.444Z,6.31
2023-02-15T01:08:54.090Z,6.32
2023-02-15T01:09:55.838Z,6.29
2023-02-15T01:10:58.814Z,6.29
2023-02-15T01:12:00.477Z,6.29
2023-02-15T01:13:03.345Z,6.29
2023-02-15T01:14:06.277Z,6.28
2023-02-15T01:15:09.523Z,6.27
2023-02-15T01:16:11.171Z,6.28
2023-02-15T01:17:15.394Z,6.26
2023-02-15T01:18:18.731Z,6.25
2023-02-15T01:19:21.262Z,6.25
2023-02-15T01:20:25.123Z,6.25
2023-02-15T01:21:28.004Z,6.24
2023-02-15T01:22:29.606Z,6.24
2023-02-15T01:23:32.122Z,6.24
2023-02-15T01:24:33.683Z,6.24
2023-02-15T01:25:37.222Z,6.23
2023-02-15T01:26:48.816Z,6.21
2023-02-15T01:27:51.659Z,6.21
2023-02-15T01:29:04.202Z,6.20
2023-02-15T01:30:16.845Z,6.20
2023-02-15T01:31:21.803Z,6.18
2023-02-15T01:32:23.840Z,6.17
2023-02-15T01:33:28.959Z,6.17
2023-02-15T01:34:31.180Z,6.17
2023-02-15T01:35:34.014Z,6.16
2023-02-15T01:36:45.565Z,6.17
2023-02-15T01:37:48.507Z,6.16
2023-02-15T01:38:50.571Z,6.15
2023-02-15T01:39:54.415Z,6.14
2023-02-15T01:41:16.689Z,6.14
2023-02-15T01:42:23.825Z,6.15
2023-02-15T01:43:41.112Z,6.13
2023-02-15T01:44:52.601Z,6.12
2023-02-15T01:45:54.327Z,6.13
2023-02-15T01:46:57.330Z,6.11
2023-02-15T01:48:02.806Z,6.10
2023-02-15T01:49:12.420Z,6.10
2023-02-15T01:50:19.676Z,6.09
2023-02-15T01:51:25.639Z,6.09
2023-02-15T01:52:27.416Z,6.07
2023-02-15T01:53:37.802Z,6.08
2023-02-15T01:54:41.712Z,6.08
2023-02-15T01:55:49.709Z,6.07
2023-02-15T01:56:51.708Z,6.06
2023-02-15T01:57:54.840Z,6.05
2023-02-15T01:59:00.617Z,6.06
2023-02-15T02:00:08.275Z,6.04
2023-02-15T02:01:23.455Z,6.03
2023-02-15T02:02:30.156Z,6.03
2023-02-15T02:03:43.396Z,6.03
2023-02-15T02:04:50.960Z,6.02
2023-02-15T02:05:53.064Z,6.01
2023-02-15T02:06:56.604Z,6.02
2023-02-15T02:08:01.240Z,6.00
2023-02-15T02:09:04.458Z,6.00
2023-02-15T02:10:08.154Z,6.00
2023-02-15T02:11:14.651Z,6.00
2023-02-15T02:12:17.635Z,5.99
2023-02-15T02:13:20.200Z,5.99
2023-02-15T02:14:24.672Z,5.99
2023-02-15T02:15:37.066Z,5.98
2023-02-15T02:16:44.658Z,5.96
2023-02-15T02:18:05.186Z,5.93
2023-02-15T02:19:41.219Z,5.93
2023-02-15T02:21:10.003Z,5.92
2023-02-15T02:22:58.724Z,5.90
2023-02-15T02:24:25.038Z,5.89
2023-02-15T02:26:01.225Z,5.86
2023-02-15T02:27:23.055Z,5.85
2023-02-15T02:28:47.384Z,5.83
2023-02-15T02:30:29.303Z,5.83
2023-02-15T02:31:54.518Z,5.81
2023-02-15T02:33:33.076Z,5.78
2023-02-15T02:34:40.707Z,5.78
2023-02-15T02:35:51.314Z,5.77
2023-02-15T02:36:59.093Z,5.77
2023-02-15T02:38:10.105Z,5.75
2023-02-15T02:39:24.003Z,5.74
2023-02-15T02:40:35.606Z,5.73
2023-02-15T02:41:46.553Z,5.73
2023-02-15T02:42:59.928Z,5.73
2023-02-15T02:44:18.926Z,5.72
2023-02-15T02:45:35.952Z,5.71
2023-02-15T02:46:45.875Z,5.71
2023-02-15T02:47:51.217Z,5.70
2023-02-15T02:48:55.816Z,5.70
2023-02-15T02:50:00.932Z,5.69
2023-02-15T02:51:03.469Z,5.68
2023-02-15T02:52:08.284Z,5.69
2023-02-15T02:53:11.711Z,5.69
2023-02-15T02:54:13.380Z,5.69
2023-02-15T02:55:21.870Z,5.69
2023-02-15T02:56:28.806Z,5.69
2023-02-15T02:57:34.369Z,5.69
2023-02-15T02:58:45.420Z,5.69
2023-02-15T02:59:48.660Z,5.67
2023-02-15T03:00:55.320Z,5.68
2023-02-15T03:02:03.038Z,5.66
2023-02-15T03:03:10.921Z,5.66
2023-02-15T03:04:16.569Z,5.66
2023-02-15T03:05:23.368Z,5.64
2023-02-15T03:06:29.996Z,5.64
2023-02-15T03:07:33.570Z,5.63
2023-02-15T03:08:50.687Z,5.63
2023-02-15T03:09:55.583Z,5.62
2023-02-15T03:11:08.798Z,5.61
2023-02-15T03:12:13.678Z,5.60
2023-02-15T03:13:17.098Z,5.61
2023-02-15T03:14:20.460Z,5.59
2023-02-15T03:15:26.453Z,5.60
2023-02-15T03:16:28.891Z,5.59
2023-02-15T03:17:34.529Z,5.60
2023-02-15T03:18:39.863Z,5.59
2023-02-15T03:19:47.967Z,5.58
2023-02-15T03:20:51.924Z,5.57
2023-02-15T03:22:04.478Z,5.56
2023-02-15T03:23:13.134Z,5.55
2023-02-15T03:24:18.751Z,5.55
2023-02-15T03:25:23.609Z,5.54
2023-02-15T03:26:28.028Z,5.54
2023-02-15T03:27:36.540Z,5.54
2023-02-15T03:28:53.036Z,5.53
2023-02-15T03:29:58.465Z,5.53
2023-02-15T03:31:04.830Z,5.52
2023-02-15T03:32:17.971Z,5.51
2023-02-15T03:33:31.282Z,5.50
2023-02-15T03:34:35.078Z,5.50
2023-02-15T03:35:54.515Z,5.49
2023-02-15T03:37:01.095Z,5.48
2023-02-15T03:38:06.310Z,5.46
2023-02-15T03:39:19.675Z,5.47
2023-02-15T03:40:47.638Z,5.45
2023-02-15T03:42:00.192Z,5.45
2023-02-15T03:43:16.803Z,5.44
2023-02-15T03:44:32.594Z,5.43
2023-02-15T03:45:55.577Z,5.42
2023-02-15T03:47:05.981Z,5.40
2023-02-15T03:48:19.093Z,5.40
2023-02-15T03:49:29.822Z,5.39
2023-02-15T03:50:55.892Z,5.39
2023-02-15T03:52:02.397Z,5.39
2023-02-15T03:53:09.012Z,5.39
2023-02-15T03:54:14.555Z,5.38
2023-02-15T03:55:16.499Z,5.39
2023-02-15T03:56:19.207Z,5.37
2023-02-15T03:57:41.815Z,5.38
2023-02-15T03:59:02.135Z,5.38
2023-02-15T04:00:30.614Z,5.38
2023-02-15T04:03:25.588Z,5.34
2023-02-15T04:04:36.745Z,5.33
2023-02-15T04:05:47.318Z,5.34
2023-02-15T04:06:48.934Z,5.32
2023-02-15T04:07:51.515Z,5.31
2023-02-15T04:09:21.777Z,5.31
2023-02-15T04:10:49.231Z,5.30
2023-02-15T04:11:50.909Z,5.30
2023-02-15T04:12:53.470Z,5.29
2023-02-15T04:16:11.905Z,5.30
2023-02-15T04:17:13.437Z,5.28
2023-02-15T04:18:16.303Z,5.29
2023-02-15T04:19:36.746Z,5.26
2023-02-15T04:20:57.097Z,5.26
2023-02-15T04:22:21.245Z,5.27
2023-02-15T04:23:51.600Z,5.25
2023-02-15T04:25:13.262Z,5.24
2023-02-15T04:26:16.318Z,5.23
2023-02-15T04:27:17.930Z,5.22
2023-02-15T04:28:20.464Z,5.23
2023-02-15T04:29:23.473Z,5.22
2023-02-15T04:30:27.500Z,5.21
2023-02-15T04:31:29.216Z,5.21
2023-02-15T04:32:31.709Z,5.20
2023-02-15T04:33:36.715Z,5.20
2023-02-15T04:34:38.595Z,5.20
2023-02-15T04:35:41.990Z,5.21
2023-02-15T04:36:43.744Z,5.20
2023-02-15T04:37:46.667Z,5.19
2023-02-15T04:38:48.249Z,5.19
2023-02-15T04:39:51.508Z,5.19
2023-02-15T04:40:54.294Z,5.19
2023-02-15T04:41:55.827Z,5.20
2023-02-15T04:42:58.286Z,5.20
2023-02-15T04:44:01.492Z,5.17
2023-02-15T04:45:14.373Z,5.18
2023-02-15T04:46:26.152Z,5.17
2023-02-15T04:47:37.584Z,5.16
2023-02-15T04:48:40.527Z,5.16
2023-02-15T04:49:43.330Z,5.15
2023-02-15T04:50:45.200Z,5.14
2023-02-15T04:51:47.718Z,5.14
2023-02-15T04:52:49.276Z,5.13
2023-02-15T04:53:53.340Z,5.13
2023-02-15T04:54:54.908Z,5.13
2023-02-15T04:55:57.394Z,5.13
2023-02-15T04:57:03.625Z,5.13
2023-02-15T04:58:06.225Z,5.14
2023-02-15T04:59:17.960Z,5.14
2023-02-15T05:00:21.091Z,5.15
2023-02-15T05:01:27.821Z,5.15
2023-02-15T05:02:30.342Z,5.14
2023-02-15T05:03:31.898Z,5.13
2023-02-15T05:04:35.781Z,5.14
2023-02-15T05:05:37.335Z,5.13
2023-02-15T05:06:39.829Z,5.14
2023-02-15T05:07:41.452Z,5.12
2023-02-15T05:08:44.025Z,5.12
2023-02-15T05:09:45.596Z,5.11
2023-02-15T05:10:49.698Z,5.11
2023-02-15T05:11:51.242Z,5.09
2023-02-15T05:12:53.705Z,5.08
2023-02-15T05:13:55.262Z,5.07
2023-02-15T05:14:57.753Z,5.08
2023-02-15T05:15:59.568Z,5.07
2023-02-15T05:17:04.098Z,5.07
2023-02-15T05:18:07.231Z,5.06
2023-02-15T05:19:10.876Z,5.05
2023-02-15T05:20:23.855Z,5.04
2023-02-15T05:21:26.641Z,5.02
2023-02-15T05:22:28.429Z,5.02
2023-02-15T05:23:31.140Z,5.02
2023-02-15T05:24:51.229Z,5.02
2023-02-15T05:26:11.511Z,5.02
2023-02-15T05:27:32.049Z,5.00
2023-02-15T05:28:34.859Z,5.00
2023-02-15T05:29:36.431Z,5.00
2023-02-15T05:30:40.674Z,4.99
2023-02-15T05:31:48.153Z,4.99
2023-02-15T05:32:51.538Z,4.98
2023-02-15T05:34:00.107Z,4.98
2023-02-15T05:35:06.310Z,4.97
2023-02-15T05:36:20.201Z,4.98
2023-02-15T05:37:22.020Z,4.98
2023-02-15T05:38:24.487Z,4.97
2023-02-15T05:39:25.976Z,4.97
2023-02-15T05:40:28.644Z,4.98
2023-02-15T05:41:30.174Z,4.97
2023-02-15T05:42:32.657Z,4.97
2023-02-15T05:43:34.773Z,4.97
2023-02-15T05:44:38.886Z,4.96
2023-02-15T05:45:40.685Z,4.95
2023-02-15T05:46:43.269Z,4.97
2023-02-15T05:47:49.681Z,4.96
2023-02-15T05:48:52.225Z,4.96
2023-02-15T05:49:53.811Z,4.96
2023-02-15T05:51:00.500Z,4.94
2023-02-15T05:52:03.845Z,4.94
2023-02-15T05:53:06.361Z,4.93
2023-02-15T05:54:07.906Z,4.93
2023-02-15T05:55:10.628Z,4.91
2023-02-15T05:56:22.184Z,4.92
2023-02-15T05:57:24.737Z,4.91
2023-02-15T05:58:27.074Z,4.90
2023-02-15T05:59:29.798Z,4.89
2023-02-15T06:00:31.483Z,4.89
2023-02-15T06:01:35.092Z,4.89
2023-02-15T06:02:37.698Z,4.89
2023-02-15T06:03:40.397Z,4.88
2023-02-15T06:04:46.385Z,4.89
2023-02-15T06:05:48.895Z,4.88
2023-02-15T06:06:50.473Z,4.88
2023-02-15T06:08:01.214Z,4.88
2023-02-15T06:09:14.730Z,4.88
2023-02-15T06:10:18.104Z,4.88
2023-02-15T06:11:20.298Z,4.88
2023-02-15T06:12:22.898Z,4.88
2023-02-15T06:13:24.490Z,4.88
2023-02-15T06:14:27.318Z,4.86
2023-02-15T06:15:28.892Z,4.86
2023-02-15T06:16:31.579Z,4.88
2023-02-15T06:17:34.063Z,4.86
2023-02-15T06:18:35.748Z,4.86
2023-02-15T06:19:38.311Z,4.85
2023-02-15T06:20:39.971Z,4.86
2023-02-15T06:21:43.196Z,4.86
2023-02-15T06:22:45.742Z,4.85
2023-02-15T06:23:48.742Z,4.84
2023-02-15T06:25:01.262Z,4.83
2023-02-15T06:26:04.033Z,4.84
2023-02-15T06:27:06.790Z,4.83
2023-02-15T06:28:08.521Z,4.84
2023-02-15T06:29:11.426Z,4.82
2023-02-15T06:30:15.192Z,4.83
2023-02-15T06:31:17.092Z,4.82
2023-02-15T06:32:19.674Z,4.82
2023-02-15T06:33:24.204Z,4.82
2023-02-15T06:34:26.697Z,4.82
2023-02-15T06:35:28.580Z,4.81
2023-02-15T06:36:41.224Z,4.80
2023-02-15T06:37:47.334Z,4.80
2023-02-15T06:38:50.600Z,4.79
2023-02-15T06:40:04.003Z,4.78
2023-02-15T06:41:05.859Z,4.76
2023-02-15T06:42:08.447Z,4.76
2023-02-15T06:43:10.017Z,4.77
2023-02-15T06:44:12.547Z,4.76
2023-02-15T06:45:14.336Z,4.76
2023-02-15T06:46:16.952Z,4.76
2023-02-15T06:47:18.502Z,4.76
2023-02-15T06:48:21.019Z,4.76
2023-02-15T06:49:23.211Z,4.76
2023-02-15T06:50:35.935Z,4.77
2023-02-15T06:51:45.807Z,4.76
2023-02-15T06:52:48.438Z,4.76
2023-02-15T06:53:51.460Z,4.74
2023-02-15T06:54:54.125Z,4.76
2023-02-15T06:56:01.745Z,4.76
2023-02-15T06:57:04.564Z,4.76
2023-02-15T06:58:06.054Z,4.74
2023-02-15T06:59:08.537Z,4.74
2023-02-15T07:00:11.379Z,4.74
2023-02-15T07:01:25.412Z,4.73
2023-02-15T07:02:29.800Z,4.73
2023-02-15T07:03:32.976Z,4.73
2023-02-15T07:04:36.375Z,4.73
2023-02-15T07:05:49.657Z,4.74
2023-02-15T07:06:53.995Z,4.74
2023-02-15T07:07:55.906Z,4.73
2023-02-15T07:08:59.746Z,4.73
2023-02-15T07:10:02.373Z,4.74
2023-02-15T07:11:19.187Z,4.74
2023-02-15T07:12:39.076Z,4.76
2023-02-15T07:13:43.474Z,4.77
2023-02-15T07:14:45.954Z,4.77
2023-02-15T07:15:49.712Z,4.78
2023-02-15T07:16:51.232Z,4.78
2023-02-15T07:17:53.775Z,4.78
2023-02-15T07:18:55.383Z,4.77
2023-02-15T07:19:58.165Z,4.80
2023-02-15T07:20:59.771Z,4.79
2023-02-15T07:22:02.947Z,4.80
2023-02-15T07:23:14.481Z,4.80
2023-02-15T07:24:18.568Z,4.82
2023-02-15T07:25:21.384Z,4.83
2023-02-15T07:26:22.921Z,4.84
2023-02-15T07:27:25.767Z,4.84
2023-02-15T07:28:28.283Z,4.85
2023-02-15T07:29:30.892Z,4.84
2023-02-15T07:30:33.509Z,4.85
2023-02-15T07:31:35.822Z,4.85
2023-02-15T07:32:58.767Z,4.87
2023-02-15T07:34:00.319Z,4.88
2023-02-15T07:35:03.085Z,4.88
2023-02-15T07:36:05.608Z,4.88
2023-02-15T07:37:08.359Z,4.89
2023-02-15T07:38:09.889Z,4.91
2023-02-15T07:39:13.299Z,4.90
2023-02-15T07:40:17.330Z,4.91
2023-02-15T07:41:19.924Z,4.92
2023-02-15T07:42:23.079Z,4.93
2023-02-15T07:43:38.437Z,4.94
2023-02-15T07:44:51.172Z,4.93
2023-02-15T07:45:53.056Z,4.94
2023-02-15T07:46:55.673Z,4.96
2023-02-15T07:47:57.206Z,4.96
2023-02-15T07:49:00.163Z,4.98
2023-02-15T07:50:02.938Z,4.99
2023-02-15T07:51:07.901Z,5.01
2023-02-15T07:52:10.885Z,5.04
2023-02-15T07:53:13.408Z,5.05
2023-02-15T07:54:14.923Z,5.07
2023-02-15T07:55:19.500Z,5.09
2023-02-15T07:56:22.054Z,5.10
2023-02-15T07:57:24.164Z,5.12
2023-02-15T07:58:47.761Z,5.14
2023-02-15T07:59:57.017Z,5.15
2023-02-15T08:01:09.315Z,5.18
2023-02-15T08:02:21.804Z,5.19
2023-02-15T08:03:25.554Z,5.21
2023-02-15T08:04:28.282Z,5.22
2023-02-15T08:05:29.787Z,5.24
2023-02-15T08:06:34.409Z,5.26
2023-02-15T08:07:36.932Z,5.28
2023-02-15T08:08:38.621Z,5.29
2023-02-15T08:09:41.160Z,5.31
2023-02-15T08:11:02.556Z,5.33
2023-02-15T08:12:05.810Z,5.34
2023-02-15T08:13:07.760Z,5.35
2023-02-15T08:14:11.851Z,5.35
2023-02-15T08:15:13.607Z,5.35
2023-02-15T08:16:16.424Z,5.36
2023-02-15T08:17:19.273Z,5.35
2023-02-15T08:18:28.641Z,5.36
2023-02-15T08:19:33.364Z,5.36
2023-02-15T08:20:34.873Z,5.36
2023-02-15T08:21:39.251Z,5.36
2023-02-15T08:22:40.877Z,5.37
2023-02-15T08:23:43.449Z,5.38
2023-02-15T08:24:46.069Z,5.38
2023-02-15T08:25:48.909Z,5.40
2023-02-15T08:26:52.579Z,5.41
2023-02-15T08:27:54.152Z,5.42
2023-02-15T08:29:08.823Z,5.45
2023-02-15T08:30:21.755Z,5.47
2023-02-15T08:31:25.070Z,5.49
2023-02-15T08:32:27.658Z,5.49
2023-02-15T08:33:29.316Z,5.49
2023-02-15T08:34:34.572Z,5.52
2023-02-15T08:35:36.095Z,5.54
2023-02-15T08:36:39.100Z,5.55
2023-02-15T08:37:40.631Z,5.57
2023-02-15T08:38:44.425Z,5.58
2023-02-15T08:39:46.944Z,5.60
2023-02-15T08:40:50.840Z,5.61
2023-02-15T08:41:53.359Z,5.63
2023-02-15T08:43:02.185Z,5.65
2023-02-15T08:44:07.570Z,5.68
2023-02-15T08:45:09.643Z,5.69
2023-02-15T08:46:23.462Z,5.69
2023-02-15T08:47:26.922Z,5.72
2023-02-15T08:48:28.939Z,5.72
2023-02-15T08:49:31.866Z,5.73
2023-02-15T08:50:33.383Z,5.74
2023-02-15T08:51:38.768Z,5.76
2023-02-15T08:52:41.239Z,5.76
2023-02-15T08:53:46.487Z,5.78
2023-02-15T08:54:49.120Z,5.81
2023-02-15T08:55:57.925Z,5.82
2023-02-15T08:57:01.743Z,5.85
2023-02-15T08:58:12.201Z,5.87
2023-02-15T08:59:17.388Z,5.87
2023-02-15T09:00:19.940Z,5.89
2023-02-15T09:01:29.578Z,5.91
2023-02-15T09:02:31.206Z,5.91
2023-02-15T09:03:33.904Z,5.93
2023-02-15T09:04:36.699Z,5.96
2023-02-15T09:05:38.280Z,5.98
2023-02-15T09:06:49.337Z,6.01
2023-02-15T09:07:51.135Z,6.02
2023-02-15T09:08:54.563Z,6.04
2023-02-15T09:09:57.058Z,6.07
2023-02-15T09:11:09.539Z,6.08
2023-02-15T09:12:12.028Z,6.10
2023-02-15T09:13:14.135Z,6.12
2023-02-15T09:14:18.713Z,6.12
2023-02-15T09:15:20.494Z,6.12
2023-02-15T09:16:24.445Z,6.14
2023-02-15T09:17:26.473Z,6.15
2023-02-15T09:18:40.758Z,6.16
2023-02-15T09:19:53.244Z,6.19
2023-02-15T09:20:56.861Z,6.21
2023-02-15T09:21:59.479Z,6.21
2023-02-15T09:23:01.048Z,6.25
2023-02-15T09:24:06.509Z,6.26
2023-02-15T09:25:08.554Z,6.29
2023-02-15T09:26:14.228Z,6.30
2023-02-15T09:27:17.304Z,6.34
2023-02-15T09:28:18.936Z,6.36
2023-02-15T09:29:21.746Z,6.37
2023-02-15T09:30:23.422Z,6.39
2023-02-15T09:31:28.187Z,6.41
2023-02-15T09:32:31.027Z,6.44
2023-02-15T09:33:46.639Z,6.47
2023-02-15T09:34:49.962Z,6.47
2023-02-15T09:35:52.492Z,6.49
2023-02-15T09:36:55.066Z,6.52
2023-02-15T09:37:56.573Z,6.54
2023-02-15T09:39:40.924Z,6.56
2023-02-15T09:40:55.059Z,6.57
2023-02-15T09:42:13.675Z,6.60
2023-02-15T09:43:29.475Z,6.62
2023-02-15T09:44:48.665Z,6.64
2023-02-15T09:46:13.253Z,6.66
2023-02-15T09:47:43.835Z,6.69
2023-02-15T09:48:52.725Z,6.70
2023-02-15T09:50:05.122Z,6.74
2023-02-15T09:51:24.962Z,6.77
2023-02-15T09:52:42.400Z,6.77
2023-02-15T09:54:03.325Z,6.79
2023-02-15T09:55:23.257Z,6.81
2023-02-15T09:56:40.408Z,6.84
2023-02-15T09:57:51.791Z,6.85
2023-02-15T09:59:04.683Z,6.86
2023-02-15T10:00:18.499Z,6.90
2023-02-15T10:01:41.268Z,6.93
2023-02-15T10:03:05.296Z,6.96
2023-02-15T10:04:32.776Z,7.00
2023-02-15T10:05:45.584Z,7.02
2023-02-15T10:07:02.454Z,7.06
2023-02-15T10:08:38.758Z,7.08
2023-02-15T10:09:55.295Z,7.10
2023-02-15T10:11:21.625Z,7.10
2023-02-15T10:12:39.197Z,7.14
2023-02-15T10:13:50.753Z,7.16
2023-02-15T10:15:26.041Z,7.20
2023-02-15T10:16:36.833Z,7.22
2023-02-15T10:17:55.083Z,7.22
2023-02-15T10:19:04.473Z,7.24
2023-02-15T10:20:25.617Z,7.27
2023-02-15T10:21:47.585Z,7.28
2023-02-15T10:23:10.230Z,7.29
2023-02-15T10:24:31.023Z,7.32
2023-02-15T10:25:44.081Z,7.34
2023-02-15T10:26:48.710Z,7.39
2023-02-15T10:27:51.958Z,7.40
2023-02-15T10:29:02.849Z,7.44
2023-02-15T10:30:11.944Z,7.47
2023-02-15T10:31:24.327Z,7.50
2023-02-15T10:32:30.189Z,7.52
2023-02-15T10:33:41.673Z,7.53
2023-02-15T10:34:52.375Z,7.57
2023-02-15T10:36:07.332Z,7.59
2023-02-15T10:37:37.698Z,7.64
2023-02-15T10:38:44.616Z,7.67
2023-02-15T10:39:57.679Z,7.69
2023-02-15T10:41:11.027Z,7.72
2023-02-15T10:42:22.681Z,7.74
2023-02-15T10:43:43.231Z,7.75
2023-02-15T10:45:05.097Z,7.78
2023-02-15T10:46:19.582Z,7.80
2023-02-15T10:47:57.539Z,7.84
2023-02-15T10:49:22.602Z,7.86
2023-02-15T10:50:42.402Z,7.88
2023-02-15T10:52:00.354Z,7.87
2023-02-15T10:53:27.924Z,7.90
2023-02-15T10:54:38.627Z,7.92
2023-02-15T10:55:53.751Z,7.93
2023-02-15T10:57:04.674Z,7.95
2023-02-15T10:58:18.371Z,7.99
2023-02-15T10:59:40.640Z,8.02
2023-02-15T11:00:48.482Z,8.03
2023-02-15T11:01:56.493Z,8.06
2023-02-15T11:03:18.959Z,8.09
2023-02-15T11:04:43.916Z,8.12
2023-02-15T11:05:56.490Z,8.14
2023-02-15T11:07:04.072Z,8.17
2023-02-15T11:08:10.290Z,8.18
2023-02-15T11:09:16.433Z,8.22
2023-02-15T11:10:28.947Z,8.23
2023-02-15T11:11:36.147Z,8.24
2023-02-15T11:12:47.372Z,8.25
2023-02-15T11:13:53.808Z,8.30
2023-02-15T11:15:02.518Z,8.31
2023-02-15T11:16:10.370Z,8.34
2023-02-15T11:17:17.398Z,8.36
2023-02-15T11:18:28.232Z,8.39
2023-02-15T11:19:35.392Z,8.40
2023-02-15T11:20:40.939Z,8.40
2023-02-15T11:21:47.509Z,8.41
2023-02-15T11:22:52.053Z,8.42
2023-02-15T11:23:56.290Z,8.42
2023-02-15T11:25:00.675Z,8.44
2023-02-15T11:26:06.921Z,8.45
2023-02-15T11:27:21.764Z,8.46
2023-02-15T11:28:30.782Z,8.49
2023-02-15T11:29:37.451Z,8.51
2023-02-15T11:30:45.917Z,8.53
2023-02-15T11:31:52.994Z,8.53
2023-02-15T11:32:59.510Z,8.57
2023-02-15T11:34:08.161Z,8.59
2023-02-15T11:35:22.518Z,8.61
2023-02-15T11:36:29.324Z,8.63
2023-02-15T11:37:36.727Z,8.64
2023-02-15T11:38:44.228Z,8.66
2023-02-15T11:39:55.982Z,8.69
2023-02-15T11:41:04.815Z,8.72
2023-02-15T11:42:13.923Z,8.74
2023-02-15T11:43:21.304Z,8.77
2023-02-15T11:44:27.942Z,8.80
2023-02-15T11:45:31.511Z,8.82
2023-02-15T11:46:34.551Z,8.86
2023-02-15T11:47:37.504Z,8.88
2023-02-15T11:48:40.949Z,8.92
2023-02-15T11:49:42.515Z,8.95
2023-02-15T11:50:46.518Z,8.98
2023-02-15T11:51:48.384Z,9.00
2023-02-15T11:52:51.687Z,9.04
2023-02-15T11:53:54.510Z,9.06
2023-02-15T11:54:56.127Z,9.09
2023-02-15T11:55:58.800Z,9.11
2023-02-15T11:57:05.308Z,9.13
2023-02-15T11:58:27.072Z,9.15
2023-02-15T11:59:34.327Z,9.16
2023-02-15T12:00:40.409Z,9.18
2023-02-15T12:01:46.677Z,9.20
2023-02-15T12:02:55.430Z,9.20
2023-02-15T12:04:01.022Z,9.20
2023-02-15T12:05:09.490Z,9.22
2023-02-15T12:06:18.044Z,9.22
2023-02-15T12:07:26.599Z,9.25
2023-02-15T12:08:40.069Z,9.28
2023-02-15T12:09:47.814Z,9.31
2023-02-15T12:11:00.543Z,9.34
2023-02-15T12:12:24.609Z,9.37
2023-02-15T12:13:27.033Z,9.39
2023-02-15T12:14:49.205Z,9.42
2023-02-15T12:15:54.738Z,9.45
2023-02-15T12:16:58.459Z,9.48
2023-02-15T12:18:01.390Z,9.50
2023-02-15T12:19:04.390Z,9.52
2023-02-15T12:20:22.502Z,9.56
2023-02-15T12:21:30.850Z,9.57
2023-02-15T12:22:37.053Z,9.58
2023-02-15T12:23:45.430Z,9.61
2023-02-15T12:24:49.524Z,9.63
2023-02-15T12:25:54.435Z,9.63
2023-02-15T12:27:00.941Z,9.66
2023-02-15T12:28:27.582Z,9.69
2023-02-15T12:29:36.787Z,9.70
2023-02-15T12:30:39.835Z,9.71
2023-02-15T12:31:45.664Z,9.75
2023-02-15T12:32:52.545Z,9.76
2023-02-15T12:33:59.095Z,9.77
2023-02-15T12:35:09.291Z,9.80
2023-02-15T12:36:14.666Z,9.80
2023-02-15T12:37:20.138Z,9.83
2023-02-15T12:38:26.247Z,9.85
2023-02-15T12:39:29.142Z,9.87
2023-02-15T12:40:32.471Z,9.88
2023-02-15T12:41:35.226Z,9.91
2023-02-15T12:42:45.375Z,9.92
2023-02-15T12:43:47.958Z,9.93
2023-02-15T12:45:00.916Z,9.98
2023-02-15T12:46:22.861Z,10.00
2023-02-15T12:47:30.451Z,10.02
2023-02-15T12:48:40.737Z,10.04
2023-02-15T12:49:48.978Z,10.05
2023-02-15T12:50:56.222Z,10.05
2023-02-15T12:52:00.559Z,10.07
2023-02-15T12:53:09.875Z,10.09
2023-02-15T12:54:41.043Z,10.11
2023-02-15T12:55:52.717Z,10.13
2023-02-15T12:56:55.238Z,10.15
2023-02-15T12:58:08.062Z,10.17
2023-02-15T12:59:15.516Z,10.18
2023-02-15T13:00:32.617Z,10.20
2023-02-15T13:01:35.756Z,10.22
2023-02-15T13:02:44.382Z,10.23
2023-02-15T13:04:16.682Z,10.26
2023-02-15T13:05:27.074Z,10.27
2023-02-15T13:06:34.062Z,10.31
2023-02-15T13:07:36.609Z,10.33
2023-02-15T13:08:48.079Z,10.36
2023-02-15T13:09:51.777Z,10.38
2023-02-15T13:10:56.978Z,10.41
2023-02-15T13:12:12.515Z,10.43
2023-02-15T13:13:22.739Z,10.46
2023-02-15T13:14:33.122Z,10.48
2023-02-15T13:15:39.233Z,10.52
2023-02-15T13:16:42.819Z,10.55
2023-02-15T13:17:45.414Z,10.58
2023-02-15T13:18:52.370Z,10.60
2023-02-15T13:19:55.299Z,10.61
2023-02-15T13:21:14.813Z,10.63
2023-02-15T13:22:24.383Z,10.65
2023-02-15T13:23:30.702Z,10.68
2023-02-15T13:24:36.858Z,10.69
2023-02-15T13:25:51.059Z,10.70
2023-02-15T13:27:12.906Z,10.71
2023-02-15T13:28:20.054Z,10.71
2023-02-15T13:29:25.139Z,10.73
2023-02-15T13:30:33.504Z,10.73
2023-02-15T13:31:37.171Z,10.76
2023-02-15T13:32:43.934Z,10.78
2023-02-15T13:33:50.327Z,10.80
2023-02-15T13:34:55.957Z,10.82
2023-02-15T13:36:08.869Z,10.84
2023-02-15T13:37:18.437Z,10.87
2023-02-15T13:38:51.349Z,10.89
2023-02-15T13:40:03.578Z,10.89
2023-02-15T13:41:11.446Z,10.92
2023-02-15T13:42:23.055Z,10.95
2023-02-15T13:43:37.397Z,10.98
2023-02-15T13:45:04.489Z,10.98
2023-02-15T13:46:23.579Z,10.99
2023-02-15T13:47:33.551Z,11.01
2023-02-15T13:48:51.007Z,11.03
2023-02-15T13:50:12.589Z,11.04
2023-02-15T13:51:22.965Z,11.05
2023-02-15T13:52:29.333Z,11.07
2023-02-15T13:54:02.746Z,11.08
2023-02-15T13:55:31.311Z,11.08
2023-02-15T13:56:47.812Z,11.10
2023-02-15T13:58:08.677Z,11.12
2023-02-15T13:59:33.373Z,11.12
2023-02-15T14:00:46.427Z,11.14
2023-02-15T14:01:57.618Z,11.17
2023-02-15T14:03:42.347Z,11.17
2023-02-15T14:05:00.250Z,11.17
2023-02-15T14:06:17.131Z,11.17
2023-02-15T14:07:31.033Z,11.19
2023-02-15T14:08:54.204Z,11.20
2023-02-15T14:10:11.425Z,11.21
2023-02-15T14:11:22.400Z,11.23
2023-02-15T14:12:43.227Z,11.25
2023-02-15T14:13:59.700Z,11.25
2023-02-15T14:15:27.903Z,11.27
2023-02-15T14:16:41.237Z,11.28
2023-02-15T14:17:52.302Z,11.29
2023-02-15T14:19:00.603Z,11.31
2023-02-15T14:20:10.546Z,11.31
2023-02-15T14:21:19.870Z,11.32
2023-02-15T14:22:32.589Z,11.33
2023-02-15T14:23:50.987Z,11.33
2023-02-15T14:25:09.326Z,11.34
2023-02-15T14:26:20.413Z,11.34
2023-02-15T14:27:30.092Z,11.34
2023-02-15T14:28:40.271Z,11.35
2023-02-15T14:29:49.949Z,11.36
2023-02-15T14:30:53.593Z,11.36
2023-02-15T14:31:59.530Z,11.37
2023-02-15T14:33:07.578Z,11.37
2023-02-15T14:34:20.959Z,11.38
2023-02-15T14:35:27.945Z,11.37
2023-02-15T14:36:32.340Z,11.38
2023-02-15T14:37:45.098Z,11.39
2023-02-15T14:39:35.569Z,11.38
2023-02-15T14:41:04.117Z,11.38
2023-02-15T14:42:15.210Z,11.37
2023-02-15T14:43:27.426Z,11.37
2023-02-15T14:44:38.576Z,11.37
2023-02-15T14:45:57.723Z,11.38
2023-02-15T14:47:06.935Z,11.40
2023-02-15T14:48:17.226Z,11.39
2023-02-15T14:49:23.477Z,11.40
2023-02-15T14:50:40.328Z,11.41
2023-02-15T14:52:02.380Z,11.42
2023-02-15T14:53:36.851Z,11.44
2023-02-15T14:55:00.455Z,11.43
2023-02-15T14:56:25.193Z,11.43
2023-02-15T14:57:36.021Z,11.43
2023-02-15T14:58:57.303Z,11.45
2023-02-15T15:00:02.205Z,11.46
2023-02-15T15:01:09.459Z,11.48
2023-02-15T15:02:15.735Z,11.50
2023-02-15T15:03:25.867Z,11.51
2023-02-15T15:04:34.122Z,11.54
2023-02-15T15:05:46.926Z,11.55
2023-02-15T15:07:02.062Z,11.56
2023-02-15T15:08:06.663Z,11.57
2023-02-15T15:09:19.462Z,11.59